Time;durP1;ratioP1;P1;durP2;ratioP2;P2;SDS_P1;SDS_P2;PMS_P1;PMS_P2;Temp;Humidity;BMP_temperature;BMP_pressure;BME280_temperature;BME280_humidity;BME280_pressure;Samples;Min_cycle;Max_cycle;Signal;HPM_P1;HPM_P2
2022/03/12 00:02:14;;;;;;;3.47;3.17;;;16.60;75.70;;;;;;5093389;28;20032;-64
2022/03/12 00:04:41;;;;;;;4.88;3.55;;;16.60;75.80;;;;;;5096013;28;20066;-68
2022/03/12 00:07:09;;;;;;;4.28;3.72;;;16.60;75.80;;;;;;5094555;28;20024;-77
2022/03/12 00:09:35;;;;;;;5.10;3.50;;;16.60;75.70;;;;;;5096115;28;20016;-64
2022/03/12 00:12:01;;;;;;;4.22;3.55;;;16.60;75.70;;;;;;5095889;28;20105;-64
2022/03/12 00:14:28;;;;;;;4.03;3.33;;;16.50;75.70;;;;;;5095909;28;20024;-70
2022/03/12 00:16:54;;;;;;;5.32;3.55;;;16.50;75.70;;;;;;5095795;28;20040;-66
2022/03/12 00:19:21;;;;;;;3.97;3.58;;;16.50;75.70;;;;;;5095825;28;20027;-64
2022/03/12 00:21:49;;;;;;;3.85;2.97;;;16.60;75.60;;;;;;5095344;28;20423;-64
2022/03/12 00:24:16;;;;;;;2.80;2.60;;;16.50;75.50;;;;;;5096110;28;20016;-67
2022/03/12 00:26:43;;;;;;;3.40;2.83;;;16.50;75.40;;;;;;5095145;28;20043;-76
2022/03/12 00:29:16;;;;;;;3.38;3.08;;;16.50;75.20;;;;;;5095874;28;20025;-72
2022/03/12 00:31:46;;;;;;;4.30;3.60;;;16.60;75.20;;;;;;5084764;28;20031;-65
2022/03/12 00:34:13;;;;;;;4.35;3.78;;;16.50;75.30;;;;;;5075800;28;20020;-63
2022/03/12 00:36:39;;;;;;;3.65;3.35;;;16.50;75.50;;;;;;5094505;28;20122;-63
2022/03/12 00:39:08;;;;;;;4.28;3.88;;;16.50;75.50;;;;;;5094020;28;20020;-65
2022/03/12 00:41:34;;;;;;;5.72;3.42;;;16.40;75.70;;;;;;5094981;28;20028;-62
2022/03/12 00:43:59;;;;;;;4.00;3.60;;;16.30;75.70;;;;;;5095554;28;20020;-63
2022/03/12 00:46:25;;;;;;;6.28;4.00;;;16.40;75.60;;;;;;5095830;28;20373;-76
2022/03/12 00:48:51;;;;;;;4.82;4.30;;;16.30;75.90;;;;;;5095515;28;20024;-69
2022/03/12 00:51:16;;;;;;;4.13;3.72;;;16.30;75.80;;;;;;5095005;28;20028;-75
2022/03/12 00:53:42;;;;;;;6.05;4.55;;;16.30;75.90;;;;;;5095312;28;20611;-77
2022/03/12 00:56:08;;;;;;;4.03;3.70;;;16.30;76.10;;;;;;5077283;28;20394;-69
2022/03/12 00:58:35;;;;;;;5.45;4.18;;;16.30;76.30;;;;;;5095435;28;20020;-65
2022/03/12 01:01:01;;;;;;;3.75;3.28;;;16.20;77.10;;;;;;5095352;28;20393;-74
2022/03/12 01:03:27;;;;;;;4.20;3.80;;;16.30;76.00;;;;;;5095028;28;20479;-72
2022/03/12 01:05:58;;;;;;;4.05;3.70;;;16.20;76.30;;;;;;5095034;28;20028;-74
2022/03/12 01:08:23;;;;;;;4.82;4.20;;;16.30;76.10;;;;;;5095168;28;20035;-76
2022/03/12 01:10:50;;;;;;;4.70;4.20;;;16.20;76.50;;;;;;5077191;28;20016;-76
2022/03/12 01:13:15;;;;;;;4.60;4.20;;;16.20;76.50;;;;;;5095208;28;20037;-76
2022/03/12 01:15:41;;;;;;;4.45;3.40;;;16.10;76.50;;;;;;5094885;28;20032;-76
2022/03/12 01:18:19;;;;;;;4.90;4.10;;;16.20;76.10;;;;;;5094988;28;20090;-75
2022/03/12 01:20:45;;;;;;;4.57;4.18;;;16.20;76.50;;;;;;5094632;28;20024;-76
2022/03/12 01:23:13;;;;;;;4.53;3.67;;;16.10;76.40;;;;;;5094934;28;20020;-68
2022/03/12 01:25:42;;;;;;;3.85;3.22;;;16.10;76.30;;;;;;5095017;28;20024;-74
2022/03/12 01:28:09;;;;;;;4.53;4.03;;;16.10;76.10;;;;;;5094989;28;20023;-76
2022/03/12 01:30:35;;;;;;;4.68;4.28;;;16.10;76.20;;;;;;5090347;28;20016;-73
2022/03/12 01:33:01;;;;;;;4.45;3.58;;;16.10;76.20;;;;;;5088826;28;20024;-73
2022/03/12 01:35:26;;;;;;;4.32;3.47;;;16.10;76.30;;;;;;5086089;28;20037;-76
2022/03/12 01:37:53;;;;;;;3.83;3.30;;;16.10;76.30;;;;;;5094680;28;20046;-73
2022/03/12 01:40:19;;;;;;;3.75;2.80;;;16.10;76.20;;;;;;5085847;28;20483;-75
2022/03/12 01:42:46;;;;;;;3.78;3.40;;;16.10;75.80;;;;;;5090092;28;20661;-73
2022/03/12 01:45:13;;;;;;;4.68;3.67;;;16.10;76.00;;;;;;5093172;28;20016;-75
2022/03/12 01:47:40;;;;;;;3.88;2.85;;;16.10;76.10;;;;;;5093415;28;20020;-74
2022/03/12 01:50:07;;;;;;;4.25;3.08;;;16.10;75.90;;;;;;5086919;28;20469;-72
2022/03/12 01:52:33;;;;;;;4.60;3.03;;;16.20;76.10;;;;;;5091258;28;20028;-72
2022/03/12 01:54:59;;;;;;;4.70;3.38;;;16.10;76.10;;;;;;5081423;28;20090;-71
2022/03/12 01:57:25;;;;;;;3.67;3.38;;;16.10;76.80;;;;;;5074339;28;20423;-72
2022/03/12 01:59:51;;;;;;;5.00;2.85;;;16.00;76.40;;;;;;5075837;28;20412;-76
2022/03/12 02:02:17;;;;;;;8.50;2.97;;;16.10;76.50;;;;;;5091729;28;20062;-75
2022/03/12 02:04:52;;;;;;;5.78;2.25;;;16.10;76.80;;;;;;5086663;28;20025;-74
2022/03/12 02:07:18;;;;;;;5.50;2.40;;;16.20;76.90;;;;;;5073555;28;20042;-73
2022/03/12 02:09:44;;;;;;;6.53;2.10;;;16.10;76.70;;;;;;5080526;28;20054;-72
2022/03/12 02:12:11;;;;;;;3.83;2.75;;;16.10;76.40;;;;;;5088369;28;20529;-72
2022/03/12 02:14:37;;;;;;;5.93;2.58;;;16.10;76.40;;;;;;5072364;28;20462;-70
2022/03/12 02:17:12;;;;;;;3.88;3.15;;;16.10;76.70;;;;;;5073305;28;20056;-72
2022/03/12 02:19:39;;;;;;;4.18;2.65;;;16.00;76.00;;;;;;5073600;28;20028;-66
2022/03/12 02:22:14;;;;;;;4.47;2.67;;;16.00;76.30;;;;;;5073359;28;20025;-67
2022/03/12 02:24:39;;;;;;;5.80;2.75;;;16.00;76.30;;;;;;5071547;28;20051;-71
2022/03/12 02:27:10;;;;;;;9.35;2.83;;;16.00;76.40;;;;;;5055485;28;20473;-73
2022/03/12 02:29:36;;;;;;;7.00;2.47;;;16.00;76.90;;;;;;5073540;28;20024;-75
2022/03/12 02:32:05;;;;;;;4.35;1.95;;;16.00;76.90;;;;;;5073287;28;20032;-65
2022/03/12 02:34:41;;;;;;;5.43;2.60;;;16.00;76.50;;;;;;5073242;28;20029;-67
2022/03/12 02:37:07;;;;;;;5.13;2.95;;;16.00;76.80;;;;;;5072998;28;20036;-75
2022/03/12 02:39:34;;;;;;;3.22;1.88;;;16.00;77.00;;;;;;5073296;28;20428;-71
2022/03/12 02:42:00;;;;;;;6.65;2.28;;;16.00;76.80;;;;;;5073120;28;20031;-75
2022/03/12 02:44:28;;;;;;;5.28;1.70;;;16.00;76.70;;;;;;5073211;28;20412;-75
2022/03/12 02:47:15;;;;;;;3.42;2.30;;;16.00;76.70;;;;;;5073173;28;20050;-76
2022/03/12 02:49:48;;;;;;;4.32;2.25;;;16.00;76.20;;;;;;5073182;28;20358;-69
2022/03/12 02:52:15;;;;;;;3.00;1.98;;;16.10;76.30;;;;;;5072932;28;20023;-69
2022/03/12 02:54:41;;;;;;;2.35;1.90;;;16.00;76.30;;;;;;5073111;28;20027;-76
2022/03/12 02:57:09;;;;;;;10.45;2.00;;;16.00;76.00;;;;;;5073170;28;20121;-73
2022/03/12 02:59:35;;;;;;;5.55;2.17;;;16.00;76.50;;;;;;5073196;28;20021;-70
2022/03/12 03:02:03;;;;;;;4.55;1.55;;;16.00;76.10;;;;;;5072896;28;20082;-74
2022/03/12 03:04:34;;;;;;;4.60;1.73;;;16.00;76.00;;;;;;5054767;28;20031;-63
2022/03/12 03:07:00;;;;;;;3.55;1.50;;;15.90;76.00;;;;;;5073381;28;20219;-71
2022/03/12 03:09:26;;;;;;;2.40;1.98;;;15.90;76.10;;;;;;5074379;28;20021;-73
2022/03/12 03:11:53;;;;;;;3.05;1.98;;;15.90;76.20;;;;;;5072284;28;20074;-66
2022/03/12 03:14:18;;;;;;;2.38;2.00;;;15.90;76.10;;;;;;5072930;28;20025;-67
2022/03/12 03:16:45;;;;;;;2.63;1.80;;;15.90;76.80;;;;;;5072538;28;20047;-72
2022/03/12 03:19:11;;;;;;;2.38;1.60;;;15.80;76.10;;;;;;5072712;28;20017;-66
2022/03/12 03:21:37;;;;;;;5.32;1.73;;;15.80;76.00;;;;;;5072718;28;20040;-69
2022/03/12 03:24:05;;;;;;;4.50;1.77;;;15.80;76.00;;;;;;5072897;28;20055;-71
2022/03/12 03:26:33;;;;;;;5.95;2.33;;;15.80;75.90;;;;;;5072735;28;20029;-64
2022/03/12 03:29:00;;;;;;;2.63;1.65;;;15.80;76.10;;;;;;5072986;28;20029;-68
2022/03/12 03:31:26;;;;;;;2.42;1.55;;;15.80;76.00;;;;;;5072415;28;20031;-71
2022/03/12 03:33:51;;;;;;;2.50;1.98;;;15.80;75.90;;;;;;5072678;28;20021;-62
2022/03/12 03:36:18;;;;;;;2.75;1.73;;;15.80;76.10;;;;;;5072378;28;20046;-62
2022/03/12 03:38:44;;;;;;;2.90;2.58;;;15.70;76.10;;;;;;5072955;28;20036;-63
2022/03/12 03:41:10;;;;;;;4.22;1.77;;;15.70;76.50;;;;;;5072747;28;20024;-62
2022/03/12 03:43:35;;;;;;;3.40;1.80;;;15.70;76.30;;;;;;5072467;28;20031;-64
2022/03/12 03:46:01;;;;;;;2.00;1.45;;;15.70;76.30;;;;;;5072362;28;20021;-66
2022/03/12 03:48:26;;;;;;;2.20;2.00;;;15.70;76.10;;;;;;5072625;28;20099;-63
2022/03/12 03:50:53;;;;;;;3.67;2.30;;;15.70;76.60;;;;;;5072837;28;20028;-63
2022/03/12 03:53:24;;;;;;;3.13;2.20;;;15.60;77.10;;;;;;5072527;28;20025;-64
2022/03/12 03:55:53;;;;;;;3.30;2.10;;;15.60;77.00;;;;;;5072520;28;20016;-64
2022/03/12 03:58:19;;;;;;;3.97;2.35;;;15.60;76.70;;;;;;5072224;28;20025;-62
2022/03/12 04:00:57;;;;;;;2.20;1.80;;;15.50;77.00;;;;;;5072783;28;20025;-62
2022/03/12 04:03:24;;;;;;;3.97;2.63;;;15.60;77.00;;;;;;5072614;28;20059;-72
2022/03/12 04:05:51;;;;;;;2.03;1.83;;;15.50;77.20;;;;;;5072707;28;20066;-70
2022/03/12 04:08:16;;;;;;;2.83;2.03;;;15.50;76.80;;;;;;5072445;28;20033;-63
2022/03/12 04:10:42;;;;;;;3.25;2.28;;;15.50;76.70;;;;;;5074955;28;20111;-62
2022/03/12 04:13:14;;;;;;;4.05;2.58;;;15.50;76.70;;;;;;5075756;28;20028;-62
2022/03/12 04:15:40;;;;;;;3.08;2.60;;;15.50;76.80;;;;;;5075790;28;20111;-62
2022/03/12 04:18:07;;;;;;;3.80;2.47;;;15.40;76.80;;;;;;5075891;28;20477;-63
2022/03/12 04:20:34;;;;;;;2.78;2.33;;;15.40;76.90;;;;;;5076142;28;20024;-67
2022/03/12 04:22:59;;;;;;;4.57;2.40;;;15.40;76.90;;;;;;5075839;28;20017;-63
2022/03/12 04:25:25;;;;;;;5.30;2.40;;;15.40;76.70;;;;;;5075874;28;20023;-64
2022/03/12 04:27:51;;;;;;;2.80;1.70;;;15.40;76.50;;;;;;5075580;28;20466;-68
2022/03/12 04:30:20;;;;;;;2.55;1.42;;;15.40;76.20;;;;;;5075851;28;20103;-65
2022/03/12 04:32:46;;;;;;;2.50;1.85;;;15.40;76.20;;;;;;5075462;28;20075;-77
2022/03/12 04:35:15;;;;;;;4.15;2.03;;;15.40;76.20;;;;;;5075426;28;20059;-75
2022/03/12 04:37:41;;;;;;;1.48;1.30;;;15.40;76.10;;;;;;5075344;28;20159;-75
2022/03/12 04:40:10;;;;;;;3.28;2.03;;;15.40;76.10;;;;;;5075498;28;20052;-73
2022/03/12 04:42:44;;;;;;;1.80;1.38;;;15.40;76.20;;;;;;5075215;28;20055;-71
2022/03/12 04:45:21;;;;;;;3.47;1.83;;;15.40;76.10;;;;;;5075337;28;20055;-64
2022/03/12 04:47:48;;;;;;;3.42;1.75;;;15.40;76.00;;;;;;5075226;28;20099;-73
2022/03/12 04:50:15;;;;;;;4.47;2.20;;;15.40;75.80;;;;;;5075599;28;20028;-71
2022/03/12 04:52:43;;;;;;;1.73;0.98;;;15.40;75.90;;;;;;5075246;28;20020;-71
2022/03/12 04:55:11;;;;;;;4.75;2.17;;;15.40;75.80;;;;;;5075131;28;20020;-69
2022/03/12 04:57:37;;;;;;;2.75;1.70;;;15.40;75.90;;;;;;5074935;28;20502;-72
2022/03/12 05:00:04;;;;;;;2.80;1.77;;;15.40;75.70;;;;;;5075062;28;20031;-65
2022/03/12 05:02:30;;;;;;;2.30;1.70;;;15.40;75.70;;;;;;5075234;28;20052;-63
2022/03/12 05:04:55;;;;;;;3.47;2.50;;;15.30;75.90;;;;;;5074663;28;20052;-74
2022/03/12 05:07:24;;;;;;;4.45;2.50;;;15.30;75.80;;;;;;5074957;28;20086;-70
2022/03/12 05:09:50;;;;;;;1.80;1.70;;;15.20;76.00;;;;;;5074877;28;20021;-70
2022/03/12 05:12:17;;;;;;;4.20;2.83;;;15.30;75.90;;;;;;5074966;28;20082;-75
2022/03/12 05:14:44;;;;;;;3.90;2.60;;;15.20;76.00;;;;;;5074739;28;20033;-69
2022/03/12 05:17:12;;;;;;;4.40;2.78;;;15.20;75.90;;;;;;5074838;28;20487;-74
2022/03/12 05:19:38;;;;;;;5.85;2.70;;;15.20;76.10;;;;;;5074741;28;20021;-74
2022/03/12 05:22:04;;;;;;;3.80;2.25;;;15.10;76.30;;;;;;5073809;28;20517;-73
2022/03/12 05:24:29;;;;;;;4.63;3.05;;;15.10;76.40;;;;;;5074706;28;20028;-76
2022/03/12 05:26:56;;;;;;;4.05;2.95;;;15.00;76.50;;;;;;5074203;28;20025;-76
2022/03/12 05:29:22;;;;;;;4.15;2.88;;;15.00;76.60;;;;;;5074743;28;20024;-73
2022/03/12 05:31:48;;;;;;;3.22;2.50;;;15.00;76.90;;;;;;5074570;28;20433;-76
2022/03/12 05:34:14;;;;;;;6.55;2.88;;;15.00;76.70;;;;;;5074228;28;20505;-68
2022/03/12 05:36:39;;;;;;;4.43;2.50;;;15.00;76.70;;;;;;5074426;28;20075;-74
2022/03/12 05:39:05;;;;;;;5.13;2.80;;;14.90;76.90;;;;;;5074107;28;20052;-76
2022/03/12 05:41:40;;;;;;;5.13;3.03;;;14.80;77.10;;;;;;5074133;28;20359;-71
2022/03/12 05:44:06;;;;;;;5.82;2.80;;;14.80;77.30;;;;;;5074182;28;20032;-74
2022/03/12 05:46:32;;;;;;;3.15;2.85;;;14.70;77.50;;;;;;5074374;28;20386;-76
2022/03/12 05:48:57;;;;;;;5.28;3.20;;;14.70;77.40;;;;;;5074163;28;20052;-66
2022/03/12 05:51:23;;;;;;;3.78;3.05;;;14.70;77.70;;;;;;5074124;28;20059;-74
2022/03/12 05:53:49;;;;;;;5.03;2.88;;;14.70;77.70;;;;;;5074355;28;20474;-77
2022/03/12 05:56:15;;;;;;;6.18;4.35;;;14.70;77.60;;;;;;5073343;28;20028;-75
2022/03/12 05:58:40;;;;;;;4.30;3.08;;;14.70;77.80;;;;;;5074254;28;20017;-76
2022/03/12 06:01:07;;;;;;;5.28;3.60;;;14.60;77.90;;;;;;5076347;28;20385;-77
2022/03/12 06:03:33;;;;;;;4.18;2.72;;;14.60;77.80;;;;;;5073740;28;20017;-77
2022/03/12 06:05:59;;;;;;;5.00;2.80;;;14.70;77.70;;;;;;5072062;28;20036;-71
2022/03/12 06:08:26;;;;;;;4.25;2.45;;;14.60;77.70;;;;;;5073635;28;20024;-77
2022/03/12 06:10:55;;;;;;;3.95;2.40;;;14.60;77.60;;;;;;5073562;28;20077;-77
2022/03/12 06:13:25;;;;;;;4.20;2.70;;;14.60;77.40;;;;;;5073059;28;20016;-73
2022/03/12 06:15:58;;;;;;;2.90;2.25;;;14.60;77.60;;;;;;5073484;28;20048;-75
2022/03/12 06:18:26;;;;;;;4.38;1.75;;;14.60;77.40;;;;;;5055799;28;20035;-76
2022/03/12 06:20:51;;;;;;;3.88;2.28;;;14.70;77.80;;;;;;5073519;28;20017;-75
2022/03/12 06:23:17;;;;;;;3.55;2.78;;;14.70;77.20;;;;;;5073383;28;20116;-75
2022/03/12 06:25:43;;;;;;;6.63;2.60;;;14.60;77.20;;;;;;5073424;28;20025;-62
2022/03/12 06:28:09;;;;;;;3.60;2.25;;;14.60;77.50;;;;;;5073595;28;20020;-66
2022/03/12 06:30:34;;;;;;;5.60;2.60;;;14.60;77.30;;;;;;5073325;28;20047;-63
2022/03/12 06:33:04;;;;;;;6.70;2.67;;;14.50;77.60;;;;;;5073211;28;20044;-70
2022/03/12 06:35:29;;;;;;;5.32;2.42;;;14.50;77.80;;;;;;5072799;28;20064;-68
2022/03/12 06:37:56;;;;;;;5.70;2.92;;;14.60;77.60;;;;;;5073187;28;20064;-66
2022/03/12 06:40:24;;;;;;;3.42;2.70;;;14.50;77.60;;;;;;5073246;28;20033;-62
2022/03/12 06:42:53;;;;;;;4.07;2.58;;;14.50;77.70;;;;;;5073585;28;20035;-67
2022/03/12 06:45:19;;;;;;;3.15;2.78;;;14.50;77.90;;;;;;5073033;28;20078;-65
2022/03/12 06:47:46;;;;;;;2.78;1.88;;;14.50;77.90;;;;;;5080777;28;20423;-62
2022/03/12 06:50:18;;;;;;;4.30;1.73;;;14.50;77.70;;;;;;5087109;28;20016;-65
2022/03/12 06:52:47;;;;;;;3.92;2.17;;;14.50;77.70;;;;;;5093471;28;20024;-62
2022/03/12 06:55:13;;;;;;;6.30;3.05;;;14.50;77.70;;;;;;5073169;28;20099;-62
2022/03/12 06:57:40;;;;;;;4.13;2.17;;;14.50;77.80;;;;;;5072948;28;20032;-73
2022/03/12 07:00:10;;;;;;;4.35;2.35;;;14.50;77.60;;;;;;5073245;28;20028;-62
2022/03/12 07:02:36;;;;;;;3.72;2.28;;;14.50;77.80;;;;;;5072891;28;20016;-68
2022/03/12 07:05:02;;;;;;;4.72;2.42;;;14.50;77.80;;;;;;5072902;28;20107;-67
2022/03/12 07:07:27;;;;;;;3.47;2.15;;;14.50;77.70;;;;;;5072570;28;20067;-74
2022/03/12 07:09:53;;;;;;;3.58;2.42;;;14.40;77.80;;;;;;5073038;28;20017;-62
2022/03/12 07:12:18;;;;;;;3.78;1.98;;;14.40;77.80;;;;;;5072791;28;20028;-63
2022/03/12 07:14:44;;;;;;;5.97;2.40;;;14.50;77.90;;;;;;5073018;28;20021;-64
2022/03/12 07:17:09;;;;;;;5.15;1.60;;;14.50;78.00;;;;;;5075647;28;20059;-63
2022/03/12 07:19:35;;;;;;;4.05;1.85;;;14.50;77.70;;;;;;5088883;28;20070;-66
2022/03/12 07:22:01;;;;;;;2.92;1.90;;;14.50;77.90;;;;;;5082000;28;20044;-67
2022/03/12 07:24:26;;;;;;;5.45;2.50;;;14.50;78.00;;;;;;5081913;28;20024;-62
2022/03/12 07:26:52;;;;;;;4.45;1.95;;;14.50;78.20;;;;;;5091971;28;20035;-63
2022/03/12 07:29:17;;;;;;;4.25;1.25;;;14.50;77.80;;;;;;5091589;28;20020;-73
2022/03/12 07:31:43;;;;;;;5.10;1.25;;;14.60;77.80;;;;;;5067178;28;20067;-72
2022/03/12 07:34:08;;;;;;;3.92;0.85;;;15.00;77.10;;;;;;5091128;28;20051;-73
2022/03/12 07:36:34;;;;;;;2.75;0.60;;;15.20;76.20;;;;;;5084613;28;20047;-75
2022/03/12 07:39:03;;;;;;;3.45;1.27;;;15.40;75.50;;;;;;5092683;28;20050;-72
2022/03/12 07:41:29;;;;;;;2.35;0.90;;;15.60;74.80;;;;;;5072013;28;20032;-76
2022/03/12 07:43:55;;;;;;;2.05;1.35;;;15.80;74.60;;;;;;5071600;28;20408;-75
2022/03/12 07:46:21;;;;;;;2.63;1.08;;;16.00;74.20;;;;;;5085384;28;20107;-75
2022/03/12 07:48:47;;;;;;;1.50;0.82;;;16.10;73.90;;;;;;5089927;28;20020;-76
2022/03/12 07:51:13;;;;;;;3.67;2.13;;;16.20;73.50;;;;;;5091323;28;20036;-76
2022/03/12 07:53:39;;;;;;;5.18;0.80;;;16.30;73.30;;;;;;5092513;28;20024;-76
2022/03/12 07:56:07;;;;;;;5.07;1.70;;;16.40;73.40;;;;;;5092477;28;20031;-68
2022/03/12 07:58:32;;;;;;;3.85;1.10;;;16.50;73.30;;;;;;5090625;28;20021;-65
2022/03/12 08:00:59;;;;;;;4.75;0.70;;;16.50;73.30;;;;;;5077547;28;20020;-66
2022/03/12 08:03:26;;;;;;;8.00;1.23;;;16.60;73.40;;;;;;5093545;28;20401;-64
2022/03/12 08:05:51;;;;;;;13.07;1.50;;;16.50;73.60;;;;;;5095223;28;20089;-64
2022/03/12 08:08:17;;;;;;;7.63;1.80;;;16.40;74.10;;;;;;5095213;28;20028;-68
2022/03/12 08:13:29;;;;;;;8.77;1.75;;;16.10;74.90;;;;;;5094896;28;20055;-67
2022/03/12 08:15:55;;;;;;;6.25;2.13;;;16.10;75.00;;;;;;5093630;28;20109;-65
2022/03/12 08:18:22;;;;;;;8.57;2.03;;;16.00;74.80;;;;;;5090778;28;20107;-68
2022/03/12 08:20:48;;;;;;;7.35;2.08;;;15.90;75.30;;;;;;5088068;28;20035;-72
2022/03/12 08:23:15;;;;;;;17.67;2.22;;;15.90;75.60;;;;;;5093568;28;20031;-71
2022/03/12 08:25:40;;;;;;;8.40;1.67;;;15.80;75.70;;;;;;5092792;28;20024;-74
2022/03/12 08:28:06;;;;;;;5.50;2.00;;;15.80;76.20;;;;;;5082935;28;20119;-75
2022/03/12 08:30:33;;;;;;;3.38;1.38;;;15.80;76.20;;;;;;5077934;28;20029;-75
2022/03/12 08:32:59;;;;;;;5.57;1.30;;;15.80;76.70;;;;;;5086804;28;20109;-72
2022/03/12 08:35:24;;;;;;;3.38;1.30;;;15.80;77.10;;;;;;5088191;28;20111;-72
2022/03/12 08:37:50;;;;;;;8.15;2.13;;;15.80;77.00;;;;;;5084717;28;20442;-74
2022/03/12 08:40:16;;;;;;;8.18;1.70;;;15.80;77.90;;;;;;5089194;28;20461;-74
2022/03/12 08:42:42;;;;;;;9.77;2.40;;;15.80;77.50;;;;;;5085892;28;20043;-69
2022/03/12 08:45:10;;;;;;;5.70;1.85;;;15.80;77.20;;;;;;5091264;28;20091;-71
2022/03/12 08:47:36;;;;;;;6.05;1.50;;;15.80;77.30;;;;;;5088969;28;20035;-74
2022/03/12 08:50:03;;;;;;;7.20;1.90;;;15.70;77.60;;;;;;5082237;28;20416;-70
2022/03/12 08:52:29;;;;;;;6.38;1.50;;;15.70;77.20;;;;;;5062765;28;20364;-71
2022/03/12 08:54:55;;;;;;;4.88;1.65;;;15.70;77.70;;;;;;5090668;28;20028;-69
2022/03/12 08:57:21;;;;;;;4.82;1.55;;;15.70;77.50;;;;;;5085998;28;20635;-64
2022/03/12 08:59:47;;;;;;;5.25;1.67;;;15.70;77.50;;;;;;5084317;28;20432;-65
2022/03/12 09:02:12;;;;;;;8.38;1.80;;;15.70;77.80;;;;;;5078799;28;20063;-65
2022/03/12 09:04:38;;;;;;;6.07;1.10;;;15.70;78.20;;;;;;5080407;28;20025;-74
2022/03/12 09:07:04;;;;;;;3.58;1.40;;;15.80;78.70;;;;;;5082903;28;20029;-72
2022/03/12 09:09:30;;;;;;;6.00;1.50;;;15.80;78.20;;;;;;5078140;28;20029;-73
2022/03/12 09:11:56;;;;;;;4.25;1.48;;;15.80;78.00;;;;;;5082310;28;20031;-67
2022/03/12 09:14:22;;;;;;;8.82;1.52;;;15.90;77.40;;;;;;5084174;28;20024;-71
2022/03/12 09:16:48;;;;;;;8.75;1.85;;;16.00;76.90;;;;;;5081773;28;20141;-68
2022/03/12 09:19:13;;;;;;;16.70;2.45;;;16.00;76.30;;;;;;5085571;28;20133;-66
2022/03/12 09:21:39;;;;;;;7.30;2.00;;;16.00;75.60;;;;;;5089741;28;20350;-66
2022/03/12 09:24:06;;;;;;;6.80;1.20;;;16.10;75.60;;;;;;5083410;28;20028;-66
2022/03/12 09:26:32;;;;;;;6.70;1.95;;;16.10;75.40;;;;;;5081136;28;20021;-71
2022/03/12 09:28:57;;;;;;;7.88;1.90;;;16.10;75.20;;;;;;5085561;28;20492;-65
2022/03/12 09:31:24;;;;;;;9.48;1.65;;;16.20;75.20;;;;;;5086485;28;20495;-68
2022/03/12 09:33:49;;;;;;;3.72;1.25;;;16.20;74.80;;;;;;5083767;28;20039;-71
2022/03/12 09:36:16;;;;;;;8.63;2.47;;;16.20;74.40;;;;;;5085955;28;20275;-65
2022/03/12 09:38:42;;;;;;;8.77;1.88;;;16.30;74.60;;;;;;5084918;28;20130;-67
2022/03/12 09:41:07;;;;;;;5.50;1.60;;;16.30;74.50;;;;;;5067807;28;20021;-64
2022/03/12 09:43:33;;;;;;;9.45;1.92;;;16.30;74.50;;;;;;5090217;28;20532;-63
2022/03/12 09:46:00;;;;;;;8.52;1.75;;;16.30;74.40;;;;;;5080902;28;20020;-64
2022/03/12 09:48:26;;;;;;;5.43;1.45;;;16.30;74.20;;;;;;5085887;28;20038;-64
2022/03/12 09:50:51;;;;;;;7.47;2.13;;;16.30;74.20;;;;;;5083875;28;20047;-67
2022/03/12 09:53:17;;;;;;;5.95;1.10;;;16.30;74.20;;;;;;5085193;28;20028;-72
2022/03/12 09:55:43;;;;;;;6.63;1.70;;;16.30;74.10;;;;;;5082243;28;20036;-64
2022/03/12 09:58:09;;;;;;;7.75;1.77;;;16.40;74.00;;;;;;5083501;28;20588;-64
2022/03/12 10:00:34;;;;;;;6.45;1.95;;;16.30;73.90;;;;;;5078493;28;20492;-67
2022/03/12 10:03:00;;;;;;;8.25;1.98;;;16.40;73.20;;;;;;5085435;28;20020;-64
2022/03/12 10:05:27;;;;;;;7.45;2.40;;;16.30;74.10;;;;;;5080021;28;20031;-63
2022/03/12 10:07:53;;;;;;;5.78;1.58;;;16.30;74.10;;;;;;5079874;28;20032;-64
2022/03/12 10:10:22;;;;;;;11.18;1.90;;;16.40;73.80;;;;;;5067106;28;20035;-62
2022/03/12 10:12:49;;;;;;;7.20;1.50;;;16.40;73.70;;;;;;5071277;28;20035;-68
2022/03/12 10:15:17;;;;;;;14.10;2.10;;;16.40;73.50;;;;;;5083255;28;20032;-75
2022/03/12 10:17:44;;;;;;;6.95;1.67;;;16.50;73.20;;;;;;5081447;28;20043;-68
2022/03/12 10:20:11;;;;;;;7.90;1.92;;;16.50;73.20;;;;;;5085498;28;20023;-68
2022/03/12 10:22:37;;;;;;;5.88;1.75;;;16.50;72.80;;;;;;5083964;28;20031;-77
2022/03/12 10:25:05;;;;;;;10.63;1.65;;;16.50;72.70;;;;;;5086599;28;20074;-74
2022/03/12 10:27:32;;;;;;;5.85;1.95;;;16.50;72.50;;;;;;5087074;28;20431;-76
2022/03/12 10:29:58;;;;;;;6.45;1.17;;;16.50;72.40;;;;;;5084034;28;20055;-72
2022/03/12 10:32:34;;;;;;;6.32;1.85;;;16.50;72.20;;;;;;5090822;28;20496;-73
2022/03/12 10:35:01;;;;;;;7.10;1.42;;;16.60;72.20;;;;;;5083664;28;20039;-77
2022/03/12 10:37:30;;;;;;;11.77;2.08;;;16.50;72.40;;;;;;5074564;28;20055;-69
2022/03/12 10:40:23;;;;;;;14.38;1.35;;;16.60;72.30;;;;;;5076548;28;20464;-71
2022/03/12 10:43:07;;;;;;;7.15;1.60;;;16.60;72.10;;;;;;5075463;28;20097;-74
2022/03/12 10:46:01;;;;;;;8.77;1.63;;;16.60;71.90;;;;;;5078419;28;20465;-72
2022/03/12 10:48:29;;;;;;;6.25;1.70;;;16.60;71.90;;;;;;5084189;28;20036;-76
2022/03/12 10:50:55;;;;;;;12.40;2.00;;;16.60;72.30;;;;;;5090924;28;20374;-73
2022/03/12 10:53:22;;;;;;;9.02;1.92;;;16.60;72.10;;;;;;5090962;28;20081;-69
2022/03/12 10:55:51;;;;;;;6.43;1.90;;;16.60;71.40;;;;;;5092020;28;20040;-79
2022/03/12 10:58:27;;;;;;;7.90;1.65;;;16.50;71.80;;;;;;5090692;28;20137;-72
2022/03/12 11:00:56;;;;;;;7.53;2.38;;;16.60;71.60;;;;;;5090188;28;20024;-75
2022/03/12 11:03:27;;;;;;;7.90;1.88;;;16.60;71.30;;;;;;5091619;28;20027;-75
2022/03/12 11:05:55;;;;;;;11.27;1.70;;;16.70;70.90;;;;;;5091793;28;20376;-74
2022/03/12 11:08:28;;;;;;;6.38;1.98;;;16.70;70.70;;;;;;5091903;28;20028;-72
2022/03/12 11:11:11;;;;;;;6.85;1.65;;;16.70;70.60;;;;;;5073993;28;20427;-74
2022/03/12 11:13:39;;;;;;;;;;;16.70;70.50;;;;;;5091447;28;20051;-75
2022/03/12 11:16:14;;;;;;;6.20;1.77;;;16.70;70.50;;;;;;5092167;28;19916;-69
2022/03/12 11:19:08;;;;;;;4.30;1.20;;;16.70;70.40;;;;;;5093241;28;20436;-72
2022/03/12 11:21:43;;;;;;;4.78;1.85;;;16.80;70.00;;;;;;5084981;28;20020;-76
2022/03/12 11:24:17;;;;;;;5.10;1.25;;;16.80;69.70;;;;;;5088080;28;20493;-77
2022/03/12 11:27:03;;;;;;;5.40;1.60;;;16.90;69.20;;;;;;5089621;28;20030;-76
2022/03/12 11:29:30;;;;;;;3.38;1.35;;;16.90;68.80;;;;;;5088447;28;20127;-76
2022/03/12 11:32:04;;;;;;;3.97;1.30;;;16.90;69.20;;;;;;5090137;28;20451;-77
2022/03/12 11:34:40;;;;;;;3.90;1.38;;;17.00;68.50;;;;;;5089574;28;20016;-75
2022/03/12 11:37:15;;;;;;;5.07;1.25;;;17.00;68.60;;;;;;5094815;28;20040;-74
2022/03/12 11:39:44;;;;;;;6.70;1.40;;;17.00;68.60;;;;;;5088506;28;20038;-71
2022/03/12 11:42:12;;;;;;;3.92;1.40;;;17.00;68.80;;;;;;5091495;28;20052;-71
2022/03/12 11:44:49;;;;;;;5.53;0.80;;;17.00;69.30;;;;;;5091845;28;20027;-77
2022/03/12 11:47:17;;;;;;;4.60;1.55;;;17.00;71.10;;;;;;5090745;28;20020;-74
2022/03/12 11:49:43;;;;;;;6.68;1.35;;;17.00;71.90;;;;;;5086798;28;20026;-72
2022/03/12 11:52:09;;;;;;;6.53;1.40;;;17.00;72.30;;;;;;5094482;28;20543;-70
2022/03/12 11:54:43;;;;;;;7.00;1.70;;;17.10;72.80;;;;;;5093874;28;20500;-74
2022/03/12 11:57:19;;;;;;;5.05;1.10;;;17.10;73.30;;;;;;5092422;28;20120;-74
2022/03/12 11:59:45;;;;;;;3.88;1.60;;;17.10;72.60;;;;;;5090223;28;20039;-68
2022/03/12 12:02:20;;;;;;;3.75;1.38;;;17.10;72.10;;;;;;5093392;28;20027;-74
2022/03/12 12:04:46;;;;;;;5.18;1.38;;;17.10;71.70;;;;;;5092060;28;20027;-70
2022/03/12 12:07:12;;;;;;;6.97;1.50;;;17.10;72.10;;;;;;5092809;28;20032;-72
2022/03/12 12:09:37;;;;;;;3.83;1.48;;;17.20;71.90;;;;;;5092423;28;20020;-64
2022/03/12 12:12:12;;;;;;;4.63;1.45;;;17.20;71.50;;;;;;5090730;28;20024;-71
2022/03/12 12:14:38;;;;;;;6.95;2.00;;;17.30;71.20;;;;;;5093799;28;20043;-71
2022/03/12 12:17:04;;;;;;;5.93;1.95;;;17.30;70.70;;;;;;5093474;28;20251;-73
2022/03/12 12:19:30;;;;;;;5.30;1.30;;;17.20;70.40;;;;;;5093361;28;20628;-76
2022/03/12 12:21:55;;;;;;;4.00;1.38;;;17.30;70.20;;;;;;5091146;28;20373;-75
2022/03/12 12:24:30;;;;;;;6.05;1.42;;;17.30;70.20;;;;;;5090254;28;20029;-74
2022/03/12 12:27:01;;;;;;;5.60;1.33;;;17.30;70.00;;;;;;5069349;28;20031;-71
2022/03/12 12:29:42;;;;;;;6.65;1.50;;;17.40;69.40;;;;;;5087878;28;20015;-73
2022/03/12 12:32:09;;;;;;;8.25;1.63;;;17.50;69.30;;;;;;5088483;28;20023;-76
2022/03/12 12:34:35;;;;;;;11.68;2.13;;;17.40;69.10;;;;;;5089075;28;20111;-66
2022/03/12 12:37:02;;;;;;;6.25;1.50;;;17.50;69.10;;;;;;5086823;28;20107;-70
2022/03/12 12:39:29;;;;;;;7.03;1.50;;;17.50;68.60;;;;;;5091278;28;20016;-69
2022/03/12 12:42:01;;;;;;;5.72;1.48;;;17.50;68.00;;;;;;5092373;28;20050;-75
2022/03/12 12:44:40;;;;;;;;;;;17.60;67.40;;;;;;5094265;28;20133;-73
2022/03/12 12:47:08;;;;;;;5.18;1.58;;;17.50;67.80;;;;;;5093783;28;19908;-72
2022/03/12 12:49:37;;;;;;;5.07;1.83;;;17.50;67.90;;;;;;5091712;28;20077;-72
2022/03/12 12:52:04;;;;;;;4.40;1.50;;;17.60;67.90;;;;;;5093654;28;20066;-69
2022/03/12 12:54:56;;;;;;;6.07;1.42;;;17.60;67.70;;;;;;5092199;28;20038;-79